createdAt,value
2017-07-17T00:00:26.255Z,97.70
2017-07-17T00:02:54.528Z,97.80
2017-07-17T00:05:22.841Z,97.90
2017-07-17T00:07:51.103Z,97.60
2017-07-17T00:10:19.371Z,97.50
2017-07-17T00:12:47.665Z,97.60
2017-07-17T00:15:15.929Z,98.20
2017-07-17T00:17:44.238Z,97.70
2017-07-17T00:20:12.548Z,97.70
2017-07-17T00:22:40.818Z,97.60
2017-07-17T00:25:09.096Z,97.70
2017-07-17T00:27:37.428Z,97.70
2017-07-17T00:30:05.705Z,98.20
2017-07-17T00:32:33.979Z,97.90
2017-07-17T00:35:02.301Z,97.90
2017-07-17T00:37:30.577Z,98.10
2017-07-17T00:39:58.852Z,97.90
2017-07-17T00:42:27.148Z,97.80
2017-07-17T00:44:55.447Z,97.90
2017-07-17T00:47:23.716Z,97.90
2017-07-17T00:49:52.396Z,97.90
2017-07-17T00:52:20.669Z,97.90
2017-07-17T00:54:48.937Z,97.80
2017-07-17T00:57:17.240Z,97.80
2017-07-17T00:59:45.511Z,97.90
2017-07-17T01:02:13.823Z,97.90
2017-07-17T01:04:42.086Z,97.90
2017-07-17T01:07:10.357Z,98.00
2017-07-17T01:09:38.696Z,98.20
2017-07-17T01:12:06.965Z,98.10
2017-07-17T01:14:35.235Z,98.40
2017-07-17T01:17:02.817Z,98.40
2017-07-17T01:19:31.092Z,98.40
2017-07-17T01:21:59.357Z,98.50
2017-07-17T01:24:28.652Z,98.60
2017-07-17T01:27:03.275Z,98.60
2017-07-17T01:29:31.570Z,98.50
2017-07-17T01:31:59.857Z,98.40
2017-07-17T01:34:28.166Z,98.60
2017-07-17T01:36:56.442Z,98.60
2017-07-17T01:39:24.745Z,98.50
2017-07-17T01:41:53.046Z,98.30
2017-07-17T01:44:21.327Z,98.40
2017-07-17T01:46:49.634Z,98.70
2017-07-17T01:49:17.924Z,98.70
2017-07-17T01:51:46.237Z,98.50
2017-07-17T01:54:14.528Z,98.80
2017-07-17T01:56:42.799Z,99.40
2017-07-17T01:59:11.087Z,99.70
2017-07-17T02:01:39.364Z,99.80
2017-07-17T02:04:07.677Z,99.90
2017-07-17T02:06:35.958Z,99.90
2017-07-17T02:09:04.262Z,99.90
2017-07-17T02:11:32.569Z,99.90
2017-07-17T02:14:00.873Z,99.90
2017-07-17T02:16:29.182Z,99.90
2017-07-17T02:18:57.499Z,99.90
2017-07-17T02:21:25.775Z,99.90
2017-07-17T02:23:54.076Z,99.90
2017-07-17T02:26:22.389Z,99.90
2017-07-17T02:28:49.897Z,99.90
2017-07-17T02:31:18.172Z,99.90
2017-07-17T02:33:46.476Z,99.90
2017-07-17T02:36:14.748Z,99.90
2017-07-17T02:38:43.021Z,99.90
2017-07-17T02:41:11.330Z,99.90
2017-07-17T02:43:39.604Z,99.90
2017-07-17T02:46:13.138Z,99.90
2017-07-17T02:48:41.626Z,99.90
2017-07-17T02:51:09.926Z,99.90
2017-07-17T02:53:38.232Z,99.90
2017-07-17T02:56:06.534Z,99.90
2017-07-17T02:58:34.839Z,99.90
2017-07-17T03:01:03.101Z,99.90
2017-07-17T03:03:31.397Z,99.90
2017-07-17T03:05:59.685Z,99.90
2017-07-17T03:08:27.983Z,99.90
2017-07-17T03:10:55.514Z,99.90
2017-07-17T03:13:23.782Z,99.90
2017-07-17T03:15:52.081Z,99.90
2017-07-17T03:18:20.346Z,99.90
2017-07-17T03:20:48.631Z,99.90
2017-07-17T03:23:16.926Z,99.90
2017-07-17T03:25:45.186Z,99.90
2017-07-17T03:28:13.474Z,99.90
2017-07-17T03:30:41.738Z,99.90
2017-07-17T03:33:10.045Z,99.90
2017-07-17T03:35:38.349Z,99.90
2017-07-17T03:38:05.853Z,99.90
2017-07-17T03:40:34.145Z,99.90
2017-07-17T03:43:02.443Z,99.90
2017-07-17T03:45:30.734Z,99.90
2017-07-17T03:47:58.998Z,99.90
2017-07-17T03:50:27.306Z,99.90
2017-07-17T03:52:55.565Z,99.90
2017-07-17T03:55:23.829Z,99.90
2017-07-17T03:57:52.119Z,99.90
2017-07-17T04:00:20.429Z,99.90
2017-07-17T04:02:48.703Z,99.90
2017-07-17T04:05:16.974Z,99.90
2017-07-17T04:07:45.271Z,99.90
2017-07-17T04:10:13.571Z,99.90
2017-07-17T04:12:41.838Z,99.90
2017-07-17T04:15:10.107Z,99.90
2017-07-17T04:17:38.393Z,99.90
2017-07-17T04:20:06.681Z,99.90
2017-07-17T04:22:34.979Z,99.90
2017-07-17T04:25:03.253Z,99.90
2017-07-17T04:27:31.513Z,99.90
2017-07-17T04:29:59.801Z,99.90
2017-07-17T04:32:28.069Z,99.90
2017-07-17T04:34:56.378Z,99.90
2017-07-17T04:37:24.653Z,99.90
2017-07-17T04:39:52.971Z,99.90
2017-07-17T04:42:21.285Z,99.90
2017-07-17T04:44:49.553Z,99.90
2017-07-17T04:47:17.858Z,99.90
2017-07-17T04:49:46.162Z,99.90
2017-07-17T04:52:14.465Z,99.90
2017-07-17T04:54:42.732Z,99.90
2017-07-17T04:57:11.001Z,99.90
2017-07-17T04:59:39.291Z,99.90
2017-07-17T05:02:07.556Z,99.90
2017-07-17T05:04:35.895Z,99.90
2017-07-17T05:07:04.172Z,99.90
2017-07-17T05:09:31.673Z,99.90
2017-07-17T05:11:59.969Z,99.90
2017-07-17T05:14:28.245Z,99.90
2017-07-17T05:16:56.541Z,99.90
2017-07-17T05:19:24.818Z,99.90
2017-07-17T05:21:53.117Z,99.90
2017-07-17T05:24:21.395Z,99.90
2017-07-17T05:26:49.705Z,99.90
2017-07-17T05:29:17.989Z,99.90
2017-07-17T05:31:46.258Z,99.90
2017-07-17T05:34:14.573Z,99.90
2017-07-17T05:36:42.845Z,99.90
2017-07-17T05:39:11.145Z,99.90
2017-07-17T05:41:39.453Z,99.90
2017-07-17T05:44:07.726Z,99.90
2017-07-17T05:46:36.045Z,99.90
2017-07-17T05:49:04.317Z,99.90
2017-07-17T05:51:32.617Z,99.90
2017-07-17T05:54:00.893Z,99.90
2017-07-17T05:56:29.171Z,99.90
2017-07-17T05:58:57.476Z,99.90
2017-07-17T06:01:25.745Z,99.90
2017-07-17T06:03:54.049Z,99.90
2017-07-17T06:06:22.325Z,99.90
2017-07-17T06:08:50.625Z,99.90
2017-07-17T06:11:18.900Z,99.90
2017-07-17T06:13:47.206Z,99.90
2017-07-17T06:16:15.528Z,99.90
2017-07-17T06:18:43.806Z,99.90
2017-07-17T06:21:12.090Z,99.90
2017-07-17T06:23:40.388Z,99.90
2017-07-17T06:26:08.665Z,99.90
2017-07-17T06:28:36.993Z,99.90
2017-07-17T06:31:05.265Z,99.90
2017-07-17T06:33:33.537Z,99.90
2017-07-17T06:36:01.844Z,99.90
2017-07-17T06:38:30.123Z,99.90
2017-07-17T06:40:58.549Z,99.90
2017-07-17T06:43:26.921Z,99.90
2017-07-17T06:45:55.206Z,99.90
2017-07-17T06:48:23.612Z,99.50
2017-07-17T06:50:51.893Z,98.60
2017-07-17T06:53:20.210Z,99.10
2017-07-17T06:55:48.490Z,99.90
2017-07-17T06:58:16.756Z,99.70
2017-07-17T07:00:45.057Z,99.70
2017-07-17T07:03:14.270Z,99.50
2017-07-17T07:05:42.598Z,98.50
2017-07-17T07:08:10.865Z,98.40
2017-07-17T07:10:39.135Z,98.80
2017-07-17T07:13:07.437Z,98.90
2017-07-17T07:15:35.707Z,96.50
2017-07-17T07:18:03.994Z,97.00
2017-07-17T07:20:32.257Z,95.80
2017-07-17T07:23:00.571Z,96.00
2017-07-17T07:25:28.833Z,97.00
2017-07-17T07:27:57.092Z,97.10
2017-07-17T07:30:25.381Z,96.20
2017-07-17T07:32:53.659Z,95.70
2017-07-17T07:35:21.961Z,96.50
2017-07-17T07:37:52.224Z,93.30
2017-07-17T07:40:20.494Z,93.80
2017-07-17T07:42:48.774Z,91.70
2017-07-17T07:45:17.075Z,92.70
2017-07-17T07:47:45.342Z,93.00
2017-07-17T07:50:13.638Z,92.50
2017-07-17T07:52:41.909Z,93.00
2017-07-17T07:55:10.205Z,93.40
2017-07-17T07:57:38.482Z,92.50
2017-07-17T08:00:06.036Z,92.50
2017-07-17T08:02:34.313Z,92.50
2017-07-17T08:05:02.576Z,91.60
2017-07-17T08:07:30.877Z,90.70
2017-07-17T08:09:59.156Z,91.90
2017-07-17T08:12:27.457Z,91.10
2017-07-17T08:14:55.739Z,91.80
2017-07-17T08:17:24.049Z,92.00
2017-07-17T08:19:52.349Z,92.50
2017-07-17T08:22:20.620Z,92.40
2017-07-17T08:24:48.916Z,92.70
2017-07-17T08:27:17.185Z,93.40
2017-07-17T08:29:45.497Z,93.30
2017-07-17T08:32:13.764Z,92.80
2017-07-17T08:34:42.043Z,93.80
2017-07-17T08:37:10.341Z,92.90
2017-07-17T08:39:38.627Z,90.50
2017-07-17T08:42:06.929Z,89.40
2017-07-17T08:44:35.232Z,88.60
2017-07-17T08:47:03.531Z,91.60
2017-07-17T08:49:31.814Z,90.90
2017-07-17T08:52:00.078Z,89.90
2017-07-17T08:54:28.377Z,90.70
2017-07-17T08:56:56.649Z,92.40
2017-07-17T08:59:24.997Z,88.90
2017-07-17T09:01:53.274Z,89.80
2017-07-17T09:04:21.641Z,91.90
2017-07-17T09:06:49.891Z,91.70
2017-07-17T09:09:18.165Z,91.40
2017-07-17T09:11:47.445Z,90.00
2017-07-17T09:14:15.708Z,90.90
2017-07-17T09:16:44.012Z,92.10
2017-07-17T09:19:12.277Z,90.50
2017-07-17T09:21:40.554Z,90.10
2017-07-17T09:24:08.878Z,85.00
2017-07-17T09:26:37.162Z,91.30
2017-07-17T09:29:05.438Z,86.70
2017-07-17T09:31:34.651Z,85.60
2017-07-17T09:34:02.926Z,85.20
2017-07-17T09:36:31.224Z,85.50
2017-07-17T09:38:59.486Z,86.10
2017-07-17T09:41:27.784Z,88.60
2017-07-17T09:43:56.074Z,85.60
2017-07-17T09:46:24.340Z,83.90
2017-07-17T09:48:52.637Z,83.20
2017-07-17T09:51:20.946Z,85.80
2017-07-17T09:53:49.258Z,74.70
2017-07-17T09:56:17.529Z,74.80
2017-07-17T09:58:45.797Z,76.70
2017-07-17T10:01:14.102Z,79.80
2017-07-17T10:03:42.379Z,76.00
2017-07-17T10:06:10.685Z,77.00
2017-07-17T10:08:38.945Z,83.70
2017-07-17T10:11:07.254Z,78.90
2017-07-17T10:13:35.533Z,79.60
2017-07-17T10:16:03.801Z,80.20
2017-07-17T10:18:32.101Z,78.80
2017-07-17T10:21:00.372Z,77.50
2017-07-17T10:23:28.645Z,77.00
2017-07-17T10:25:56.951Z,73.40
2017-07-17T10:28:25.279Z,73.40
2017-07-17T10:30:53.601Z,77.80
2017-07-17T10:33:21.885Z,75.30
2017-07-17T10:35:50.192Z,78.20
2017-07-17T10:38:18.463Z,75.80
2017-07-17T10:40:46.757Z,79.00
2017-07-17T10:43:15.023Z,80.10
2017-07-17T10:45:43.358Z,81.60
2017-07-17T10:48:11.634Z,72.70
2017-07-17T10:50:39.934Z,77.90
2017-07-17T10:53:08.228Z,76.30
2017-07-17T10:55:36.502Z,73.60
2017-07-17T10:58:04.803Z,73.30
2017-07-17T11:00:33.081Z,72.00
2017-07-17T11:03:01.356Z,73.00
2017-07-17T11:05:29.664Z,75.30
2017-07-17T11:07:57.935Z,71.30
2017-07-17T11:13:00.687Z,70.20
2017-07-17T11:15:28.992Z,63.60
2017-07-17T11:17:57.260Z,68.60
2017-07-17T11:20:25.551Z,63.50
2017-07-17T11:22:53.857Z,71.20
2017-07-17T11:25:22.132Z,64.30
2017-07-17T11:27:50.428Z,61.20
2017-07-17T11:30:18.738Z,62.20
2017-07-17T11:32:47.013Z,66.60
2017-07-17T11:35:14.557Z,66.20
2017-07-17T11:37:42.877Z,70.20
2017-07-17T11:40:11.142Z,67.20
2017-07-17T11:42:39.475Z,60.50
2017-07-17T11:45:07.772Z,66.70
2017-07-17T12:00:12.806Z,62.00
2017-07-17T12:02:41.110Z,63.70
2017-07-17T12:07:36.903Z,61.60
2017-07-17T12:10:05.172Z,58.50
2017-07-17T12:12:33.440Z,59.90
2017-07-17T12:15:01.751Z,57.70
2017-07-17T12:17:30.017Z,61.30
2017-07-17T12:19:58.313Z,58.90
2017-07-17T12:22:26.579Z,64.30
2017-07-17T12:24:54.866Z,66.60
2017-07-17T12:27:23.172Z,60.00
2017-07-17T12:29:51.459Z,58.70
2017-07-17T12:32:19.748Z,57.20
2017-07-17T12:34:48.044Z,56.90
2017-07-17T12:37:16.324Z,58.10
2017-07-17T12:39:44.631Z,58.70
2017-07-17T12:42:12.894Z,59.50
2017-07-17T12:44:41.196Z,57.60
2017-07-17T12:47:09.478Z,61.30
2017-07-17T12:49:37.784Z,54.50
2017-07-17T12:52:06.055Z,57.40
2017-07-17T12:54:34.316Z,59.60
2017-07-17T12:57:02.615Z,54.70
2017-07-17T12:59:30.889Z,55.70
2017-07-17T13:01:59.193Z,55.30
2017-07-17T13:04:27.468Z,54.70
2017-07-17T13:06:55.767Z,56.80
2017-07-17T13:09:24.048Z,54.30
2017-07-17T13:11:52.317Z,55.10
2017-07-17T13:14:20.618Z,56.90
2017-07-17T13:16:48.901Z,55.50
2017-07-17T13:19:17.202Z,54.60
2017-07-17T13:21:45.469Z,54.70
2017-07-17T13:24:13.814Z,57.30
2017-07-17T13:26:41.313Z,56.70
2017-07-17T13:29:09.602Z,55.90
2017-07-17T13:31:37.856Z,53.10
2017-07-17T13:34:06.159Z,53.30
2017-07-17T13:36:34.431Z,54.30
2017-07-17T13:39:02.696Z,52.60
2017-07-17T13:41:31.967Z,54.50
2017-07-17T13:44:00.233Z,55.00
2017-07-17T13:46:28.578Z,53.00
2017-07-17T13:48:56.845Z,53.10
2017-07-17T13:51:25.110Z,50.70
2017-07-17T13:53:53.412Z,51.80
2017-07-17T13:56:21.693Z,54.10
2017-07-17T13:58:50.017Z,53.20
2017-07-17T14:01:19.278Z,49.40
2017-07-17T14:03:47.538Z,51.70
2017-07-17T14:06:15.832Z,52.60
2017-07-17T14:08:44.146Z,52.30
2017-07-17T14:11:12.405Z,53.40
2017-07-17T14:13:40.741Z,54.30
2017-07-17T14:16:09.033Z,53.40
2017-07-17T14:18:36.541Z,53.40
2017-07-17T14:21:04.843Z,51.20
2017-07-17T14:23:33.112Z,51.30
2017-07-17T14:26:01.407Z,51.10
2017-07-17T14:28:29.737Z,49.80
2017-07-17T14:30:58.013Z,49.40
2017-07-17T14:33:26.308Z,50.40
2017-07-17T14:35:54.578Z,52.50
2017-07-17T14:38:22.878Z,50.90
2017-07-17T14:40:51.173Z,51.40
2017-07-17T14:43:19.436Z,52.00
2017-07-17T14:45:47.727Z,49.70
2017-07-17T14:48:16.019Z,50.70
2017-07-17T14:50:44.289Z,51.30
2017-07-17T14:53:12.588Z,52.00
2017-07-17T14:55:40.863Z,48.50
2017-07-17T14:58:09.174Z,49.30
2017-07-17T15:00:37.433Z,47.70
2017-07-17T15:03:05.705Z,47.80
2017-07-17T15:05:34.016Z,49.70
2017-07-17T15:08:02.281Z,49.50
2017-07-17T15:10:30.591Z,51.40
2017-07-17T15:12:58.855Z,49.70
2017-07-17T15:15:27.151Z,47.90
2017-07-17T15:17:55.427Z,46.80
2017-07-17T15:20:23.697Z,47.90
2017-07-17T15:22:51.988Z,48.30
2017-07-17T15:25:20.255Z,45.90
2017-07-17T15:27:48.542Z,48.60
2017-07-17T15:30:16.815Z,49.80
2017-07-17T15:32:45.132Z,49.90
2017-07-17T15:35:13.393Z,47.30
2017-07-17T15:37:41.654Z,47.60
2017-07-17T15:40:09.941Z,48.80
2017-07-17T15:42:38.200Z,45.50
2017-07-17T15:45:06.514Z,45.00
2017-07-17T15:47:34.773Z,45.90
2017-07-17T15:50:03.048Z,46.40
2017-07-17T15:52:31.353Z,43.90
2017-07-17T15:54:59.618Z,46.50
2017-07-17T15:57:27.907Z,46.10
2017-07-17T15:59:56.198Z,45.00
2017-07-17T16:02:24.471Z,44.40
2017-07-17T16:04:52.760Z,46.40
2017-07-17T16:07:21.026Z,46.50
2017-07-17T16:09:49.308Z,46.90
2017-07-17T16:12:17.580Z,47.90
2017-07-17T16:14:45.894Z,48.20
2017-07-17T16:17:14.178Z,48.10
2017-07-17T16:19:42.485Z,47.40
2017-07-17T16:22:10.778Z,46.30
2017-07-17T16:24:39.071Z,47.40
2017-07-17T16:27:07.333Z,50.00
2017-07-17T16:29:35.605Z,48.20
2017-07-17T16:32:03.894Z,49.20
2017-07-17T16:34:32.162Z,49.70
2017-07-17T16:37:00.456Z,50.30
2017-07-17T16:39:28.736Z,49.20
2017-07-17T16:41:57.032Z,48.20
2017-07-17T16:44:25.310Z,49.00
2017-07-17T16:46:53.585Z,49.50
2017-07-17T16:49:21.892Z,49.20
2017-07-17T16:51:50.163Z,49.50
2017-07-17T16:54:18.425Z,52.40
2017-07-17T16:56:46.736Z,52.90
2017-07-17T16:59:15.006Z,50.80
2017-07-17T17:01:43.310Z,51.40
2017-07-17T17:04:11.581Z,50.00
2017-07-17T17:06:41.889Z,51.40
2017-07-17T17:09:10.154Z,50.70
2017-07-17T17:11:38.434Z,52.20
2017-07-17T17:14:06.747Z,52.40
2017-07-17T17:16:35.021Z,51.60
2017-07-17T17:19:03.325Z,50.60
2017-07-17T17:21:31.588Z,51.50
2017-07-17T17:23:59.891Z,49.70
2017-07-17T17:26:28.155Z,51.60
2017-07-17T17:28:55.671Z,51.60
2017-07-17T17:31:23.970Z,51.30
2017-07-17T17:33:52.246Z,49.50
2017-07-17T17:36:20.566Z,49.50
2017-07-17T17:38:48.834Z,51.50
2017-07-17T17:41:17.135Z,51.10
2017-07-17T17:43:45.419Z,51.50
2017-07-17T17:46:13.723Z,53.90
2017-07-17T17:48:41.994Z,51.70
2017-07-17T17:51:10.273Z,51.80
2017-07-17T17:53:38.581Z,53.90
2017-07-17T17:56:06.855Z,53.30
2017-07-17T17:58:35.164Z,51.10
2017-07-17T18:01:03.446Z,51.20
2017-07-17T18:03:31.726Z,51.60
2017-07-17T18:06:00.037Z,51.40
2017-07-17T18:08:28.321Z,51.60
2017-07-17T18:10:56.620Z,52.50
2017-07-17T18:13:24.898Z,52.30
2017-07-17T18:15:53.225Z,52.30
2017-07-17T18:18:21.497Z,52.20
2017-07-17T18:20:49.769Z,52.60
2017-07-17T18:23:18.089Z,54.00
2017-07-17T18:25:46.347Z,53.70
2017-07-17T18:28:14.631Z,53.60
2017-07-17T18:30:42.915Z,53.70
2017-07-17T18:33:11.169Z,55.00
2017-07-17T18:35:39.468Z,54.40
2017-07-17T18:38:06.988Z,54.50
2017-07-17T18:40:35.250Z,55.20
2017-07-17T18:43:03.560Z,55.10
2017-07-17T18:45:31.842Z,55.80
2017-07-17T18:48:00.135Z,57.60
2017-07-17T18:50:28.396Z,57.40
2017-07-17T18:52:56.704Z,56.90
2017-07-17T18:55:24.206Z,56.90
2017-07-17T18:57:52.468Z,57.80
2017-07-17T19:00:20.771Z,57.70
2017-07-17T19:02:49.032Z,57.90
2017-07-17T19:05:17.336Z,58.70
2017-07-17T19:07:45.642Z,58.90
2017-07-17T19:10:13.909Z,59.00
2017-07-17T19:12:42.191Z,62.10
2017-07-17T19:15:10.459Z,61.80
2017-07-17T19:17:37.989Z,61.80
2017-07-17T19:20:06.272Z,61.90
2017-07-17T19:22:34.561Z,63.20
2017-07-17T19:25:02.869Z,63.30
2017-07-17T19:27:31.182Z,63.50
2017-07-17T19:29:59.458Z,62.80
2017-07-17T19:32:27.724Z,63.40
2017-07-17T19:34:56.017Z,63.00
2017-07-17T19:37:24.321Z,63.50
2017-07-17T19:39:52.584Z,64.60
2017-07-17T19:42:20.891Z,62.80
2017-07-17T19:44:49.163Z,65.90
2017-07-17T19:47:17.480Z,65.30
2017-07-17T19:49:45.760Z,67.80
2017-07-17T19:52:14.046Z,67.20
2017-07-17T19:54:42.346Z,65.40
2017-07-17T19:57:10.606Z,68.00
2017-07-17T19:59:38.901Z,67.90
2017-07-17T20:02:07.176Z,68.10
2017-07-17T20:04:35.486Z,68.30
2017-07-17T20:07:03.743Z,69.00
2017-07-17T20:09:32.005Z,68.50
2017-07-17T20:12:00.310Z,69.60
2017-07-17T20:14:28.564Z,68.20
2017-07-17T20:16:56.815Z,69.90
2017-07-17T20:19:25.099Z,67.80
2017-07-17T20:21:53.411Z,68.80
2017-07-17T20:24:21.691Z,69.60
2017-07-17T20:26:49.948Z,69.10
2017-07-17T20:29:18.225Z,69.80
2017-07-17T20:31:46.505Z,69.70
2017-07-17T20:34:14.807Z,70.60
2017-07-17T20:36:43.086Z,70.90
2017-07-17T20:39:11.395Z,71.30
2017-07-17T20:41:39.673Z,70.60
2017-07-17T20:44:07.938Z,72.00
2017-07-17T20:46:36.238Z,72.20
2017-07-17T20:49:04.499Z,72.80
2017-07-17T20:51:32.805Z,71.90
2017-07-17T20:54:01.073Z,72.60
2017-07-17T20:56:29.363Z,73.40
2017-07-17T20:58:57.628Z,73.30
2017-07-17T21:01:25.940Z,73.90
2017-07-17T21:03:53.446Z,73.80
2017-07-17T21:06:21.709Z,73.50
2017-07-17T21:08:49.997Z,73.90
2017-07-17T21:11:18.284Z,74.20
2017-07-17T21:13:46.548Z,73.10
2017-07-17T21:16:14.855Z,73.80
2017-07-17T21:18:43.134Z,74.80
2017-07-17T21:21:11.433Z,74.90
2017-07-17T21:23:39.692Z,74.70
2017-07-17T21:26:07.991Z,75.60
2017-07-17T21:28:36.263Z,75.20
2017-07-17T21:31:04.561Z,75.00
2017-07-17T21:33:32.833Z,75.90
2017-07-17T21:36:00.359Z,75.90
2017-07-17T21:38:28.622Z,76.20
2017-07-17T21:40:56.929Z,76.50
2017-07-17T21:43:25.193Z,76.80
2017-07-17T21:45:53.458Z,76.10
2017-07-17T21:48:21.742Z,76.90
2017-07-17T21:50:50.018Z,76.80
2017-07-17T21:53:18.311Z,77.70
2017-07-17T21:55:46.608Z,78.40
2017-07-17T21:58:14.907Z,78.70
2017-07-17T22:00:43.167Z,79.90
2017-07-17T22:03:11.465Z,80.00
2017-07-17T22:05:39.765Z,79.10
2017-07-17T22:08:08.029Z,79.80
2017-07-17T22:10:36.321Z,80.60
2017-07-17T22:13:04.592Z,80.60
2017-07-17T22:15:32.887Z,81.80
2017-07-17T22:18:01.153Z,81.70
2017-07-17T22:20:29.445Z,82.50
2017-07-17T22:22:57.698Z,82.60
2017-07-17T22:25:25.999Z,83.30
2017-07-17T22:27:54.259Z,83.10
2017-07-17T22:30:22.565Z,84.10
2017-07-17T22:32:50.852Z,82.60
2017-07-17T22:35:18.357Z,82.50
2017-07-17T22:37:46.656Z,83.70
2017-07-17T22:40:14.924Z,84.10
2017-07-17T22:42:43.234Z,84.20
2017-07-17T22:45:10.741Z,84.20
2017-07-17T22:47:38.277Z,84.90
2017-07-17T22:50:06.547Z,85.30
2017-07-17T22:52:34.819Z,85.70
2017-07-17T22:55:03.114Z,85.10
2017-07-17T22:57:31.377Z,86.10
2017-07-17T22:59:59.639Z,85.50
2017-07-17T23:02:27.932Z,85.80
2017-07-17T23:04:56.196Z,85.60
2017-07-17T23:07:24.493Z,85.50
2017-07-17T23:09:52.752Z,85.70
2017-07-17T23:12:21.059Z,86.20
2017-07-17T23:14:49.329Z,85.60
2017-07-17T23:17:17.593Z,85.90
2017-07-17T23:19:45.876Z,85.80
2017-07-17T23:22:14.137Z,86.20
2017-07-17T23:24:42.433Z,86.20
2017-07-17T23:27:10.697Z,86.50
2017-07-17T23:29:38.992Z,86.20
2017-07-17T23:32:07.250Z,86.40
2017-07-17T23:34:34.791Z,86.20
2017-07-17T23:37:03.048Z,86.50
2017-07-17T23:39:31.310Z,87.30
2017-07-17T23:41:59.601Z,87.20
2017-07-17T23:44:27.861Z,87.70
2017-07-17T23:46:56.177Z,87.90
2017-07-17T23:49:24.450Z,87.50
2017-07-17T23:51:52.709Z,87.00
2017-07-17T23:54:21.006Z,87.90
2017-07-17T23:56:49.264Z,87.90
2017-07-17T23:59:17.549Z,87.60
